sensor_id;sensor_type;location;lat;lon;timestamp;P1;durP1;ratioP1;P2;durP2;ratioP2
43676;SDS011;29275;48.800;18.102;2023-09-18T00:02:03;9.35;;;7.85;;
43676;SDS011;29275;48.800;18.102;2023-09-18T00:05:09;11.80;;;8.98;;
43676;SDS011;29275;48.800;18.102;2023-09-18T00:11:23;8.60;;;7.53;;
43676;SDS011;29275;48.800;18.102;2023-09-18T00:14:29;9.43;;;7.68;;
43676;SDS011;29275;48.800;18.102;2023-09-18T00:17:32;8.45;;;7.55;;
43676;SDS011;29275;48.800;18.102;2023-09-18T00:20:37;10.13;;;7.63;;
43676;SDS011;29275;48.800;18.102;2023-09-18T00:23:40;11.25;;;7.47;;
43676;SDS011;29275;48.800;18.102;2023-09-18T00:26:47;9.80;;;7.88;;
43676;SDS011;29275;48.800;18.102;2023-09-18T00:29:50;11.05;;;7.10;;
43676;SDS011;29275;48.800;18.102;2023-09-18T00:32:59;9.80;;;7.88;;
43676;SDS011;29275;48.800;18.102;2023-09-18T00:36:05;10.75;;;7.40;;
43676;SDS011;29275;48.800;18.102;2023-09-18T00:39:08;13.10;;;8.35;;
43676;SDS011;29275;48.800;18.102;2023-09-18T00:42:14;8.20;;;7.28;;
43676;SDS011;29275;48.800;18.102;2023-09-18T00:45:20;11.35;;;8.27;;
43676;SDS011;29275;48.800;18.102;2023-09-18T00:48:33;12.13;;;8.32;;
43676;SDS011;29275;48.800;18.102;2023-09-18T00:51:43;10.38;;;8.32;;
43676;SDS011;29275;48.800;18.102;2023-09-18T00:54:54;8.48;;;7.07;;
43676;SDS011;29275;48.800;18.102;2023-09-18T00:58:05;11.93;;;7.43;;
43676;SDS011;29275;48.800;18.102;2023-09-18T01:01:17;11.63;;;8.80;;
43676;SDS011;29275;48.800;18.102;2023-09-18T01:04:27;9.85;;;8.23;;
43676;SDS011;29275;48.800;18.102;2023-09-18T01:07:33;9.82;;;7.68;;
43676;SDS011;29275;48.800;18.102;2023-09-18T01:10:39;10.38;;;7.80;;
43676;SDS011;29275;48.800;18.102;2023-09-18T01:17:25;10.82;;;7.75;;
43676;SDS011;29275;48.800;18.102;2023-09-18T01:20:28;11.77;;;8.47;;
43676;SDS011;29275;48.800;18.102;2023-09-18T01:23:34;15.00;;;8.32;;
43676;SDS011;29275;48.800;18.102;2023-09-18T01:26:36;8.52;;;7.13;;
43676;SDS011;29275;48.800;18.102;2023-09-18T01:29:46;10.30;;;7.38;;
43676;SDS011;29275;48.800;18.102;2023-09-18T01:32:58;9.00;;;7.68;;
43676;SDS011;29275;48.800;18.102;2023-09-18T01:36:05;12.20;;;8.98;;
43676;SDS011;29275;48.800;18.102;2023-09-18T01:39:11;11.10;;;7.30;;
43676;SDS011;29275;48.800;18.102;2023-09-18T01:42:33;10.77;;;9.00;;
43676;SDS011;29275;48.800;18.102;2023-09-18T01:45:42;11.60;;;8.45;;
43676;SDS011;29275;48.800;18.102;2023-09-18T01:48:46;11.63;;;8.80;;
43676;SDS011;29275;48.800;18.102;2023-09-18T01:51:55;10.30;;;7.97;;
43676;SDS011;29275;48.800;18.102;2023-09-18T01:55:02;8.30;;;7.00;;
43676;SDS011;29275;48.800;18.102;2023-09-18T01:58:17;9.80;;;7.47;;
43676;SDS011;29275;48.800;18.102;2023-09-18T02:01:27;11.13;;;7.38;;
43676;SDS011;29275;48.800;18.102;2023-09-18T02:04:37;9.85;;;7.68;;
43676;SDS011;29275;48.800;18.102;2023-09-18T02:08:06;11.18;;;7.80;;
43676;SDS011;29275;48.800;18.102;2023-09-18T02:11:09;13.10;;;9.18;;
43676;SDS011;29275;48.800;18.102;2023-09-18T02:14:31;8.48;;;7.00;;
43676;SDS011;29275;48.800;18.102;2023-09-18T02:17:35;9.63;;;7.97;;
43676;SDS011;29275;48.800;18.102;2023-09-18T02:20:56;10.40;;;7.85;;
43676;SDS011;29275;48.800;18.102;2023-09-18T02:24:07;11.95;;;8.88;;
43676;SDS011;29275;48.800;18.102;2023-09-18T02:27:10;10.10;;;7.68;;
43676;SDS011;29275;48.800;18.102;2023-09-18T02:30:23;9.90;;;7.93;;
43676;SDS011;29275;48.800;18.102;2023-09-18T02:33:33;10.63;;;8.35;;
43676;SDS011;29275;48.800;18.102;2023-09-18T02:36:54;12.38;;;8.95;;
43676;SDS011;29275;48.800;18.102;2023-09-18T02:39:57;9.65;;;8.07;;
43676;SDS011;29275;48.800;18.102;2023-09-18T02:43:10;9.32;;;7.95;;
43676;SDS011;29275;48.800;18.102;2023-09-18T02:46:17;11.20;;;9.18;;
43676;SDS011;29275;48.800;18.102;2023-09-18T02:49:26;10.60;;;7.82;;
43676;SDS011;29275;48.800;18.102;2023-09-18T02:52:29;8.98;;;7.38;;
43676;SDS011;29275;48.800;18.102;2023-09-18T02:55:40;9.85;;;7.60;;
43676;SDS011;29275;48.800;18.102;2023-09-18T02:58:46;11.10;;;8.80;;
43676;SDS011;29275;48.800;18.102;2023-09-18T03:01:50;9.05;;;7.45;;
43676;SDS011;29275;48.800;18.102;2023-09-18T03:05:02;11.60;;;8.60;;
43676;SDS011;29275;48.800;18.102;2023-09-18T03:08:16;12.10;;;8.38;;
43676;SDS011;29275;48.800;18.102;2023-09-18T03:11:37;9.82;;;8.50;;
43676;SDS011;29275;48.800;18.102;2023-09-18T03:17:50;9.27;;;8.20;;
43676;SDS011;29275;48.800;18.102;2023-09-18T03:21:17;13.85;;;7.95;;
43676;SDS011;29275;48.800;18.102;2023-09-18T03:24:39;8.27;;;6.90;;
43676;SDS011;29275;48.800;18.102;2023-09-18T03:27:41;16.58;;;9.00;;
43676;SDS011;29275;48.800;18.102;2023-09-18T03:30:53;9.68;;;7.97;;
43676;SDS011;29275;48.800;18.102;2023-09-18T03:34:03;9.90;;;7.88;;
43676;SDS011;29275;48.800;18.102;2023-09-18T03:37:09;9.45;;;7.75;;
43676;SDS011;29275;48.800;18.102;2023-09-18T03:43:25;11.50;;;8.07;;
43676;SDS011;29275;48.800;18.102;2023-09-18T03:46:31;11.32;;;7.85;;
43676;SDS011;29275;48.800;18.102;2023-09-18T03:49:34;10.53;;;8.07;;
43676;SDS011;29275;48.800;18.102;2023-09-18T03:52:44;10.40;;;8.07;;
43676;SDS011;29275;48.800;18.102;2023-09-18T03:55:57;10.30;;;8.23;;
43676;SDS011;29275;48.800;18.102;2023-09-18T03:59:07;12.55;;;9.13;;
43676;SDS011;29275;48.800;18.102;2023-09-18T04:02:21;9.57;;;8.00;;
43676;SDS011;29275;48.800;18.102;2023-09-18T04:05:42;15.80;;;7.72;;
43676;SDS011;29275;48.800;18.102;2023-09-18T04:08:45;10.45;;;7.70;;
43676;SDS011;29275;48.800;18.102;2023-09-18T04:11:58;12.00;;;7.60;;
43676;SDS011;29275;48.800;18.102;2023-09-18T04:15:09;10.52;;;7.88;;
43676;SDS011;29275;48.800;18.102;2023-09-18T04:18:21;9.10;;;7.53;;
43676;SDS011;29275;48.800;18.102;2023-09-18T04:21:31;11.40;;;7.80;;
43676;SDS011;29275;48.800;18.102;2023-09-18T04:24:37;9.32;;;7.47;;
43676;SDS011;29275;48.800;18.102;2023-09-18T04:27:41;11.93;;;8.48;;
43676;SDS011;29275;48.800;18.102;2023-09-18T04:30:54;9.98;;;8.23;;
43676;SDS011;29275;48.800;18.102;2023-09-18T04:34:17;11.63;;;8.45;;
43676;SDS011;29275;48.800;18.102;2023-09-18T04:37:20;10.48;;;7.10;;
43676;SDS011;29275;48.800;18.102;2023-09-18T04:40:42;11.27;;;8.85;;
43676;SDS011;29275;48.800;18.102;2023-09-18T04:43:52;12.80;;;8.57;;
43676;SDS011;29275;48.800;18.102;2023-09-18T04:47:03;11.50;;;7.90;;
43676;SDS011;29275;48.800;18.102;2023-09-18T04:50:07;12.70;;;9.43;;
43676;SDS011;29275;48.800;18.102;2023-09-18T04:53:30;14.00;;;9.60;;
43676;SDS011;29275;48.800;18.102;2023-09-18T04:56:37;10.80;;;8.95;;
43676;SDS011;29275;48.800;18.102;2023-09-18T04:59:41;10.63;;;8.70;;
43676;SDS011;29275;48.800;18.102;2023-09-18T05:02:52;11.95;;;9.38;;
43676;SDS011;29275;48.800;18.102;2023-09-18T05:05:58;13.30;;;9.95;;
43676;SDS011;29275;48.800;18.102;2023-09-18T05:09:01;12.77;;;9.75;;
43676;SDS011;29275;48.800;18.102;2023-09-18T05:12:14;13.38;;;10.27;;
43676;SDS011;29275;48.800;18.102;2023-09-18T05:15:30;15.05;;;9.95;;
43676;SDS011;29275;48.800;18.102;2023-09-18T05:18:35;12.73;;;8.80;;
43676;SDS011;29275;48.800;18.102;2023-09-18T05:21:43;10.23;;;8.40;;
43676;SDS011;29275;48.800;18.102;2023-09-18T05:24:46;12.63;;;8.43;;
43676;SDS011;29275;48.800;18.102;2023-09-18T05:27:56;10.55;;;8.68;;
43676;SDS011;29275;48.800;18.102;2023-09-18T05:31:07;9.93;;;8.55;;
43676;SDS011;29275;48.800;18.102;2023-09-18T05:34:14;9.77;;;7.93;;
43676;SDS011;29275;48.800;18.102;2023-09-18T05:37:16;13.75;;;9.75;;
43676;SDS011;29275;48.800;18.102;2023-09-18T05:40:19;9.02;;;7.40;;
43676;SDS011;29275;48.800;18.102;2023-09-18T05:43:22;10.63;;;7.85;;
43676;SDS011;29275;48.800;18.102;2023-09-18T05:46:25;10.20;;;6.93;;
43676;SDS011;29275;48.800;18.102;2023-09-18T05:49:41;11.05;;;7.82;;
43676;SDS011;29275;48.800;18.102;2023-09-18T05:52:44;11.27;;;7.70;;
43676;SDS011;29275;48.800;18.102;2023-09-18T05:55:48;9.70;;;7.65;;
43676;SDS011;29275;48.800;18.102;2023-09-18T05:58:51;9.40;;;7.60;;
43676;SDS011;29275;48.800;18.102;2023-09-18T06:02:05;9.98;;;7.35;;
43676;SDS011;29275;48.800;18.102;2023-09-18T06:05:08;11.30;;;8.65;;
43676;SDS011;29275;48.800;18.102;2023-09-18T06:08:14;9.52;;;7.88;;
43676;SDS011;29275;48.800;18.102;2023-09-18T06:11:21;10.50;;;7.15;;
43676;SDS011;29275;48.800;18.102;2023-09-18T06:14:24;9.65;;;7.10;;
43676;SDS011;29275;48.800;18.102;2023-09-18T06:17:30;9.57;;;6.97;;
43676;SDS011;29275;48.800;18.102;2023-09-18T06:20:33;10.65;;;8.10;;
43676;SDS011;29275;48.800;18.102;2023-09-18T06:23:40;10.15;;;7.50;;
43676;SDS011;29275;48.800;18.102;2023-09-18T06:26:43;10.77;;;8.05;;
43676;SDS011;29275;48.800;18.102;2023-09-18T06:29:46;10.02;;;6.72;;
43676;SDS011;29275;48.800;18.102;2023-09-18T06:32:49;7.65;;;6.28;;
43676;SDS011;29275;48.800;18.102;2023-09-18T06:35:53;9.30;;;7.32;;
43676;SDS011;29275;48.800;18.102;2023-09-18T06:38:56;12.18;;;7.63;;
43676;SDS011;29275;48.800;18.102;2023-09-18T06:42:00;10.27;;;7.30;;
43676;SDS011;29275;48.800;18.102;2023-09-18T06:45:04;11.70;;;7.65;;
43676;SDS011;29275;48.800;18.102;2023-09-18T06:48:09;8.73;;;6.30;;
43676;SDS011;29275;48.800;18.102;2023-09-18T06:51:12;8.63;;;6.68;;
43676;SDS011;29275;48.800;18.102;2023-09-18T06:54:14;12.00;;;7.68;;
43676;SDS011;29275;48.800;18.102;2023-09-18T06:57:17;8.38;;;6.85;;
43676;SDS011;29275;48.800;18.102;2023-09-18T07:00:20;12.52;;;7.50;;
43676;SDS011;29275;48.800;18.102;2023-09-18T07:03:24;9.65;;;6.40;;
43676;SDS011;29275;48.800;18.102;2023-09-18T07:06:30;9.50;;;6.22;;
43676;SDS011;29275;48.800;18.102;2023-09-18T07:09:33;8.95;;;6.43;;
43676;SDS011;29275;48.800;18.102;2023-09-18T07:12:48;7.22;;;6.35;;
43676;SDS011;29275;48.800;18.102;2023-09-18T07:15:54;11.65;;;7.20;;
43676;SDS011;29275;48.800;18.102;2023-09-18T07:18:57;10.15;;;7.40;;
43676;SDS011;29275;48.800;18.102;2023-09-18T07:22:03;9.15;;;6.60;;
43676;SDS011;29275;48.800;18.102;2023-09-18T07:25:06;7.93;;;6.95;;
43676;SDS011;29275;48.800;18.102;2023-09-18T07:31:22;9.75;;;6.53;;
43676;SDS011;29275;48.800;18.102;2023-09-18T07:34:27;10.10;;;6.57;;
43676;SDS011;29275;48.800;18.102;2023-09-18T07:37:30;8.70;;;7.28;;
43676;SDS011;29275;48.800;18.102;2023-09-18T07:40:34;9.60;;;6.53;;
43676;SDS011;29275;48.800;18.102;2023-09-18T07:43:37;14.18;;;6.53;;
43676;SDS011;29275;48.800;18.102;2023-09-18T07:46:41;12.07;;;6.97;;
43676;SDS011;29275;48.800;18.102;2023-09-18T07:49:47;9.77;;;7.75;;
43676;SDS011;29275;48.800;18.102;2023-09-18T07:52:51;9.70;;;7.03;;
43676;SDS011;29275;48.800;18.102;2023-09-18T07:55:57;8.68;;;6.53;;
43676;SDS011;29275;48.800;18.102;2023-09-18T07:59:06;13.23;;;7.53;;
43676;SDS011;29275;48.800;18.102;2023-09-18T08:02:10;8.48;;;6.88;;
43676;SDS011;29275;48.800;18.102;2023-09-18T08:05:13;9.32;;;7.35;;
43676;SDS011;29275;48.800;18.102;2023-09-18T08:08:18;7.90;;;6.68;;
43676;SDS011;29275;48.800;18.102;2023-09-18T08:11:22;8.07;;;6.70;;
43676;SDS011;29275;48.800;18.102;2023-09-18T08:14:26;10.52;;;6.97;;
43676;SDS011;29275;48.800;18.102;2023-09-18T08:17:29;10.95;;;6.05;;
43676;SDS011;29275;48.800;18.102;2023-09-18T08:20:35;9.82;;;6.22;;
43676;SDS011;29275;48.800;18.102;2023-09-18T08:23:39;6.90;;;6.05;;
43676;SDS011;29275;48.800;18.102;2023-09-18T08:26:42;10.32;;;6.80;;
43676;SDS011;29275;48.800;18.102;2023-09-18T08:29:45;8.25;;;6.97;;
43676;SDS011;29275;48.800;18.102;2023-09-18T08:32:49;12.38;;;6.68;;
43676;SDS011;29275;48.800;18.102;2023-09-18T08:38:58;8.75;;;6.47;;
43676;SDS011;29275;48.800;18.102;2023-09-18T08:42:05;10.15;;;6.95;;
43676;SDS011;29275;48.800;18.102;2023-09-18T08:45:22;6.40;;;5.78;;
43676;SDS011;29275;48.800;18.102;2023-09-18T08:48:28;6.95;;;5.70;;
43676;SDS011;29275;48.800;18.102;2023-09-18T08:51:38;8.43;;;6.40;;
43676;SDS011;29275;48.800;18.102;2023-09-18T08:54:42;10.88;;;6.50;;
43676;SDS011;29275;48.800;18.102;2023-09-18T08:57:46;14.48;;;6.47;;
43676;SDS011;29275;48.800;18.102;2023-09-18T09:00:50;9.27;;;6.45;;
43676;SDS011;29275;48.800;18.102;2023-09-18T09:03:56;8.13;;;6.33;;
43676;SDS011;29275;48.800;18.102;2023-09-18T09:06:58;8.93;;;6.15;;
43676;SDS011;29275;48.800;18.102;2023-09-18T09:10:04;7.80;;;5.87;;
43676;SDS011;29275;48.800;18.102;2023-09-18T09:13:13;9.40;;;5.90;;
43676;SDS011;29275;48.800;18.102;2023-09-18T09:16:31;8.30;;;5.95;;
43676;SDS011;29275;48.800;18.102;2023-09-18T09:19:37;10.23;;;6.23;;
43676;SDS011;29275;48.800;18.102;2023-09-18T09:22:45;8.77;;;6.05;;
43676;SDS011;29275;48.800;18.102;2023-09-18T09:25:48;6.28;;;5.32;;
43676;SDS011;29275;48.800;18.102;2023-09-18T09:28:56;8.23;;;5.72;;
43676;SDS011;29275;48.800;18.102;2023-09-18T09:35:25;9.18;;;5.80;;
43676;SDS011;29275;48.800;18.102;2023-09-18T09:38:34;8.85;;;5.63;;
43676;SDS011;29275;48.800;18.102;2023-09-18T09:41:38;9.63;;;5.50;;
43676;SDS011;29275;48.800;18.102;2023-09-18T09:44:48;7.90;;;5.10;;
43676;SDS011;29275;48.800;18.102;2023-09-18T09:47:57;8.82;;;5.03;;
43676;SDS011;29275;48.800;18.102;2023-09-18T09:51:02;8.68;;;5.18;;
43676;SDS011;29275;48.800;18.102;2023-09-18T09:54:05;7.75;;;5.28;;
43676;SDS011;29275;48.800;18.102;2023-09-18T09:57:13;6.95;;;5.30;;
43676;SDS011;29275;48.800;18.102;2023-09-18T10:00:16;7.47;;;5.45;;
43676;SDS011;29275;48.800;18.102;2023-09-18T10:03:32;8.60;;;5.35;;
43676;SDS011;29275;48.800;18.102;2023-09-18T10:06:36;9.00;;;5.30;;
43676;SDS011;29275;48.800;18.102;2023-09-18T10:09:42;8.68;;;5.75;;
43676;SDS011;29275;48.800;18.102;2023-09-18T10:12:45;6.90;;;4.80;;
43676;SDS011;29275;48.800;18.102;2023-09-18T10:15:57;6.75;;;4.78;;
43676;SDS011;29275;48.800;18.102;2023-09-18T10:22:56;12.10;;;6.50;;
43676;SDS011;29275;48.800;18.102;2023-09-18T10:26:05;9.60;;;7.00;;
43676;SDS011;29275;48.800;18.102;2023-09-18T10:29:14;7.75;;;6.43;;
43676;SDS011;29275;48.800;18.102;2023-09-18T10:32:16;10.52;;;6.35;;
43676;SDS011;29275;48.800;18.102;2023-09-18T10:35:22;8.85;;;7.35;;
43676;SDS011;29275;48.800;18.102;2023-09-18T10:38:26;10.43;;;7.13;;
43676;SDS011;29275;48.800;18.102;2023-09-18T10:41:32;8.30;;;7.13;;
43676;SDS011;29275;48.800;18.102;2023-09-18T10:44:35;8.90;;;6.43;;
43676;SDS011;29275;48.800;18.102;2023-09-18T10:47:41;26.00;;;8.77;;
43676;SDS011;29275;48.800;18.102;2023-09-18T10:50:45;10.38;;;6.78;;
43676;SDS011;29275;48.800;18.102;2023-09-18T10:53:49;8.35;;;6.75;;
43676;SDS011;29275;48.800;18.102;2023-09-18T10:56:59;29.77;;;7.40;;
43676;SDS011;29275;48.800;18.102;2023-09-18T11:00:02;11.45;;;7.40;;
43676;SDS011;29275;48.800;18.102;2023-09-18T11:03:18;9.45;;;8.52;;
43676;SDS011;29275;48.800;18.102;2023-09-18T11:06:22;14.32;;;8.68;;
43676;SDS011;29275;48.800;18.102;2023-09-18T11:09:30;8.45;;;7.57;;
43676;SDS011;29275;48.800;18.102;2023-09-18T11:12:52;9.27;;;7.63;;
43676;SDS011;29275;48.800;18.102;2023-09-18T11:16:16;10.35;;;8.13;;
43676;SDS011;29275;48.800;18.102;2023-09-18T11:19:28;9.52;;;8.52;;
43676;SDS011;29275;48.800;18.102;2023-09-18T11:25:41;8.73;;;7.63;;
43676;SDS011;29275;48.800;18.102;2023-09-18T11:28:44;9.65;;;8.65;;
43676;SDS011;29275;48.800;18.102;2023-09-18T11:31:59;9.18;;;7.72;;
43676;SDS011;29275;48.800;18.102;2023-09-18T11:35:07;14.70;;;8.20;;
43676;SDS011;29275;48.800;18.102;2023-09-18T11:38:30;12.33;;;8.47;;
43676;SDS011;29275;48.800;18.102;2023-09-18T11:41:34;11.77;;;9.43;;
43676;SDS011;29275;48.800;18.102;2023-09-18T11:44:52;13.88;;;10.70;;
43676;SDS011;29275;48.800;18.102;2023-09-18T11:47:57;9.75;;;8.00;;
43676;SDS011;29275;48.800;18.102;2023-09-18T11:51:08;8.35;;;7.45;;
43676;SDS011;29275;48.800;18.102;2023-09-18T11:54:19;12.63;;;8.75;;
43676;SDS011;29275;48.800;18.102;2023-09-18T11:57:22;9.43;;;7.95;;
43676;SDS011;29275;48.800;18.102;2023-09-18T12:00:25;13.88;;;8.52;;
43676;SDS011;29275;48.800;18.102;2023-09-18T12:03:33;10.48;;;8.32;;
43676;SDS011;29275;48.800;18.102;2023-09-18T12:06:43;11.85;;;8.27;;
43676;SDS011;29275;48.800;18.102;2023-09-18T12:09:46;11.30;;;7.90;;
43676;SDS011;29275;48.800;18.102;2023-09-18T12:12:49;10.30;;;8.52;;
43676;SDS011;29275;48.800;18.102;2023-09-18T12:15:56;10.02;;;7.55;;
43676;SDS011;29275;48.800;18.102;2023-09-18T12:19:04;9.98;;;7.88;;
43676;SDS011;29275;48.800;18.102;2023-09-18T12:22:22;9.02;;;7.13;;
43676;SDS011;29275;48.800;18.102;2023-09-18T12:25:38;8.93;;;7.38;;
43676;SDS011;29275;48.800;18.102;2023-09-18T12:28:43;8.93;;;7.93;;
43676;SDS011;29275;48.800;18.102;2023-09-18T12:31:46;8.55;;;7.05;;
43676;SDS011;29275;48.800;18.102;2023-09-18T12:34:53;11.48;;;7.07;;
43676;SDS011;29275;48.800;18.102;2023-09-18T12:37:57;8.82;;;7.22;;
43676;SDS011;29275;48.800;18.102;2023-09-18T12:41:02;7.78;;;6.97;;
43676;SDS011;29275;48.800;18.102;2023-09-18T12:44:09;9.70;;;7.65;;
43676;SDS011;29275;48.800;18.102;2023-09-18T12:47:13;8.02;;;6.95;;
43676;SDS011;29275;48.800;18.102;2023-09-18T12:50:19;12.90;;;7.13;;
43676;SDS011;29275;48.800;18.102;2023-09-18T12:53:22;8.45;;;6.80;;
43676;SDS011;29275;48.800;18.102;2023-09-18T12:56:28;8.33;;;6.83;;
43676;SDS011;29275;48.800;18.102;2023-09-18T12:59:35;8.90;;;6.85;;
43676;SDS011;29275;48.800;18.102;2023-09-18T13:02:44;11.48;;;7.72;;
43676;SDS011;29275;48.800;18.102;2023-09-18T13:05:47;8.38;;;6.70;;
43676;SDS011;29275;48.800;18.102;2023-09-18T13:09:17;7.45;;;6.70;;
43676;SDS011;29275;48.800;18.102;2023-09-18T13:15:51;8.15;;;6.85;;
43676;SDS011;29275;48.800;18.102;2023-09-18T13:19:03;13.10;;;7.20;;
43676;SDS011;29275;48.800;18.102;2023-09-18T13:22:15;9.93;;;7.00;;
43676;SDS011;29275;48.800;18.102;2023-09-18T13:25:33;11.10;;;6.57;;
43676;SDS011;29275;48.800;18.102;2023-09-18T13:28:43;8.18;;;7.10;;
43676;SDS011;29275;48.800;18.102;2023-09-18T13:31:50;10.40;;;6.57;;
43676;SDS011;29275;48.800;18.102;2023-09-18T13:34:54;8.50;;;6.20;;
43676;SDS011;29275;48.800;18.102;2023-09-18T13:38:02;8.82;;;6.95;;
43676;SDS011;29275;48.800;18.102;2023-09-18T13:41:13;8.60;;;7.10;;
43676;SDS011;29275;48.800;18.102;2023-09-18T13:44:16;9.48;;;7.53;;
43676;SDS011;29275;48.800;18.102;2023-09-18T13:47:23;9.15;;;6.78;;
43676;SDS011;29275;48.800;18.102;2023-09-18T13:50:26;12.13;;;6.97;;
43676;SDS011;29275;48.800;18.102;2023-09-18T13:56:41;7.20;;;6.10;;
43676;SDS011;29275;48.800;18.102;2023-09-18T13:59:44;6.82;;;6.13;;
43676;SDS011;29275;48.800;18.102;2023-09-18T14:02:49;9.93;;;6.97;;
43676;SDS011;29275;48.800;18.102;2023-09-18T14:05:52;11.20;;;6.80;;
43676;SDS011;29275;48.800;18.102;2023-09-18T14:08:57;13.70;;;7.15;;
43676;SDS011;29275;48.800;18.102;2023-09-18T14:12:01;11.52;;;7.43;;
43676;SDS011;29275;48.800;18.102;2023-09-18T14:18:09;11.20;;;7.72;;
43676;SDS011;29275;48.800;18.102;2023-09-18T14:21:13;9.73;;;7.13;;
43676;SDS011;29275;48.800;18.102;2023-09-18T14:24:26;8.57;;;6.97;;
43676;SDS011;29275;48.800;18.102;2023-09-18T14:27:29;10.07;;;6.95;;
43676;SDS011;29275;48.800;18.102;2023-09-18T14:30:37;13.50;;;7.32;;
43676;SDS011;29275;48.800;18.102;2023-09-18T14:33:41;8.88;;;6.95;;
43676;SDS011;29275;48.800;18.102;2023-09-18T14:36:44;8.23;;;6.38;;
43676;SDS011;29275;48.800;18.102;2023-09-18T14:39:52;10.95;;;7.20;;
43676;SDS011;29275;48.800;18.102;2023-09-18T14:42:55;8.38;;;7.10;;
43676;SDS011;29275;48.800;18.102;2023-09-18T14:46:01;8.15;;;6.35;;
43676;SDS011;29275;48.800;18.102;2023-09-18T14:49:08;18.90;;;7.03;;
43676;SDS011;29275;48.800;18.102;2023-09-18T14:52:13;9.30;;;6.95;;
43676;SDS011;29275;48.800;18.102;2023-09-18T14:55:21;9.20;;;6.00;;
43676;SDS011;29275;48.800;18.102;2023-09-18T14:58:26;13.15;;;7.22;;
43676;SDS011;29275;48.800;18.102;2023-09-18T15:01:28;10.52;;;7.32;;
43676;SDS011;29275;48.800;18.102;2023-09-18T15:04:32;13.63;;;7.22;;
43676;SDS011;29275;48.800;18.102;2023-09-18T15:07:36;15.50;;;7.60;;
43676;SDS011;29275;48.800;18.102;2023-09-18T15:10:39;9.23;;;7.25;;
43676;SDS011;29275;48.800;18.102;2023-09-18T15:13:44;7.63;;;6.38;;
43676;SDS011;29275;48.800;18.102;2023-09-18T15:16:46;7.90;;;7.10;;
43676;SDS011;29275;48.800;18.102;2023-09-18T15:19:52;7.30;;;6.38;;
43676;SDS011;29275;48.800;18.102;2023-09-18T15:22:58;8.90;;;6.97;;
43676;SDS011;29275;48.800;18.102;2023-09-18T15:26:01;8.57;;;5.68;;
43676;SDS011;29275;48.800;18.102;2023-09-18T15:29:04;9.70;;;5.97;;
43676;SDS011;29275;48.800;18.102;2023-09-18T15:32:09;9.15;;;6.55;;
43676;SDS011;29275;48.800;18.102;2023-09-18T15:35:12;6.68;;;5.97;;
43676;SDS011;29275;48.800;18.102;2023-09-18T15:38:24;9.38;;;6.57;;
43676;SDS011;29275;48.800;18.102;2023-09-18T15:41:30;7.85;;;6.18;;
43676;SDS011;29275;48.800;18.102;2023-09-18T15:44:32;11.88;;;6.35;;
43676;SDS011;29275;48.800;18.102;2023-09-18T15:47:38;9.63;;;6.60;;
43676;SDS011;29275;48.800;18.102;2023-09-18T15:50:49;8.65;;;5.50;;
43676;SDS011;29275;48.800;18.102;2023-09-18T15:53:54;8.88;;;6.70;;
43676;SDS011;29275;48.800;18.102;2023-09-18T15:56:59;8.50;;;6.20;;
43676;SDS011;29275;48.800;18.102;2023-09-18T16:00:06;8.27;;;5.60;;
43676;SDS011;29275;48.800;18.102;2023-09-18T16:03:12;7.10;;;6.18;;
43676;SDS011;29275;48.800;18.102;2023-09-18T16:06:19;7.38;;;6.25;;
43676;SDS011;29275;48.800;18.102;2023-09-18T16:09:28;8.38;;;5.57;;
43676;SDS011;29275;48.800;18.102;2023-09-18T16:12:33;9.57;;;6.88;;
43676;SDS011;29275;48.800;18.102;2023-09-18T16:15:39;6.70;;;5.72;;
43676;SDS011;29275;48.800;18.102;2023-09-18T16:18:49;7.90;;;6.05;;
43676;SDS011;29275;48.800;18.102;2023-09-18T16:21:54;7.97;;;5.63;;
43676;SDS011;29275;48.800;18.102;2023-09-18T16:24:57;11.32;;;5.93;;
43676;SDS011;29275;48.800;18.102;2023-09-18T16:28:03;11.63;;;6.20;;
43676;SDS011;29275;48.800;18.102;2023-09-18T16:31:08;9.68;;;6.30;;
43676;SDS011;29275;48.800;18.102;2023-09-18T16:34:11;6.38;;;5.18;;
43676;SDS011;29275;48.800;18.102;2023-09-18T16:37:14;8.38;;;6.65;;
43676;SDS011;29275;48.800;18.102;2023-09-18T16:40:17;8.95;;;6.32;;
43676;SDS011;29275;48.800;18.102;2023-09-18T16:43:20;12.15;;;7.45;;
43676;SDS011;29275;48.800;18.102;2023-09-18T16:46:23;7.10;;;6.30;;
43676;SDS011;29275;48.800;18.102;2023-09-18T16:49:27;8.77;;;6.32;;
43676;SDS011;29275;48.800;18.102;2023-09-18T16:52:30;8.68;;;6.13;;
43676;SDS011;29275;48.800;18.102;2023-09-18T16:55:36;9.02;;;7.15;;
43676;SDS011;29275;48.800;18.102;2023-09-18T16:58:39;9.77;;;7.60;;
43676;SDS011;29275;48.800;18.102;2023-09-18T17:01:43;8.43;;;6.53;;
43676;SDS011;29275;48.800;18.102;2023-09-18T17:04:46;12.00;;;6.85;;
43676;SDS011;29275;48.800;18.102;2023-09-18T17:07:51;8.27;;;6.60;;
43676;SDS011;29275;48.800;18.102;2023-09-18T17:10:55;8.45;;;6.57;;
43676;SDS011;29275;48.800;18.102;2023-09-18T17:13:59;7.40;;;6.03;;
43676;SDS011;29275;48.800;18.102;2023-09-18T17:17:03;7.22;;;6.18;;
43676;SDS011;29275;48.800;18.102;2023-09-18T17:23:13;7.90;;;5.65;;
43676;SDS011;29275;48.800;18.102;2023-09-18T17:26:16;7.95;;;5.95;;
43676;SDS011;29275;48.800;18.102;2023-09-18T17:29:20;6.53;;;5.82;;
43676;SDS011;29275;48.800;18.102;2023-09-18T17:32:24;6.88;;;6.03;;
43676;SDS011;29275;48.800;18.102;2023-09-18T17:35:29;7.57;;;6.10;;
43676;SDS011;29275;48.800;18.102;2023-09-18T17:38:32;7.53;;;5.53;;
43676;SDS011;29275;48.800;18.102;2023-09-18T17:41:35;8.23;;;5.72;;
43676;SDS011;29275;48.800;18.102;2023-09-18T17:44:40;7.72;;;6.35;;
43676;SDS011;29275;48.800;18.102;2023-09-18T17:47:44;6.50;;;5.63;;
43676;SDS011;29275;48.800;18.102;2023-09-18T17:53:54;8.40;;;5.60;;
43676;SDS011;29275;48.800;18.102;2023-09-18T17:56:59;6.80;;;5.63;;
43676;SDS011;29275;48.800;18.102;2023-09-18T18:00:03;8.45;;;5.88;;
43676;SDS011;29275;48.800;18.102;2023-09-18T18:03:08;6.53;;;5.72;;
43676;SDS011;29275;48.800;18.102;2023-09-18T18:06:14;7.97;;;6.15;;
43676;SDS011;29275;48.800;18.102;2023-09-18T18:09:18;7.63;;;6.57;;
43676;SDS011;29275;48.800;18.102;2023-09-18T18:12:26;7.88;;;5.90;;
43676;SDS011;29275;48.800;18.102;2023-09-18T18:15:30;7.50;;;5.20;;
43676;SDS011;29275;48.800;18.102;2023-09-18T18:18:33;12.63;;;7.05;;
43676;SDS011;29275;48.800;18.102;2023-09-18T18:21:36;10.43;;;6.47;;
43676;SDS011;29275;48.800;18.102;2023-09-18T18:24:42;9.17;;;6.30;;
43676;SDS011;29275;48.800;18.102;2023-09-18T18:27:45;7.13;;;6.25;;
43676;SDS011;29275;48.800;18.102;2023-09-18T18:30:49;8.75;;;5.93;;
43676;SDS011;29275;48.800;18.102;2023-09-18T18:33:53;7.93;;;5.78;;
43676;SDS011;29275;48.800;18.102;2023-09-18T18:37:02;8.80;;;6.60;;
43676;SDS011;29275;48.800;18.102;2023-09-18T18:40:08;6.35;;;5.03;;
43676;SDS011;29275;48.800;18.102;2023-09-18T18:43:13;5.80;;;5.05;;
43676;SDS011;29275;48.800;18.102;2023-09-18T18:46:18;7.45;;;6.00;;
43676;SDS011;29275;48.800;18.102;2023-09-18T18:49:22;8.77;;;6.25;;
43676;SDS011;29275;48.800;18.102;2023-09-18T18:52:28;7.03;;;5.13;;
43676;SDS011;29275;48.800;18.102;2023-09-18T18:55:32;7.32;;;5.82;;
43676;SDS011;29275;48.800;18.102;2023-09-18T18:58:36;7.03;;;5.80;;
43676;SDS011;29275;48.800;18.102;2023-09-18T19:01:39;14.18;;;5.57;;
43676;SDS011;29275;48.800;18.102;2023-09-18T19:04:42;7.63;;;5.50;;
43676;SDS011;29275;48.800;18.102;2023-09-18T19:07:45;7.63;;;5.72;;